sensor_id;sensor_type;location;lat;lon;timestamp;pressure;altitude;pressure_sealevel;temperature;humidity
21100;BME280;10708;50.824;4.408;2023-03-21T00:00:28;100724.94;;;10.03;100.00
21100;BME280;10708;50.824;4.408;2023-03-21T00:05:30;100721.47;;;10.02;100.00
21100;BME280;10708;50.824;4.408;2023-03-21T00:10:34;100713.53;;;10.04;100.00
21100;BME280;10708;50.824;4.408;2023-03-21T00:15:36;100712.66;;;10.03;100.00
21100;BME280;10708;50.824;4.408;2023-03-21T00:20:56;100703.91;;;10.03;100.00
21100;BME280;10708;50.824;4.408;2023-03-21T00:26:00;100697.72;;;10.04;100.00
21100;BME280;10708;50.824;4.408;2023-03-21T00:31:03;100688.13;;;10.03;100.00
21100;BME280;10708;50.824;4.408;2023-03-21T00:36:07;100679.34;;;10.02;100.00
21100;BME280;10708;50.824;4.408;2023-03-21T00:41:12;100680.22;;;10.03;100.00
21100;BME280;10708;50.824;4.408;2023-03-21T00:46:15;100679.34;;;10.02;100.00
21100;BME280;10708;50.824;4.408;2023-03-21T00:51:20;100666.19;;;10.02;100.00
21100;BME280;10708;50.824;4.408;2023-03-21T00:56:27;100668.84;;;10.02;100.00
21100;BME280;10708;50.824;4.408;2023-03-21T01:01:29;100653.91;;;10.03;100.00
21100;BME280;10708;50.824;4.408;2023-03-21T01:06:36;100653.91;;;10.03;100.00
21100;BME280;10708;50.824;4.408;2023-03-21T01:11:41;100645.09;;;10.04;100.00
21100;BME280;10708;50.824;4.408;2023-03-21T01:16:44;100632.78;;;10.06;100.00
21100;BME280;10708;50.824;4.408;2023-03-21T01:21:46;100630.09;;;10.07;100.00
21100;BME280;10708;50.824;4.408;2023-03-21T01:26:50;100623.97;;;10.07;100.00
21100;BME280;10708;50.824;4.408;2023-03-21T01:31:53;100615.91;;;10.11;100.00
21100;BME280;10708;50.824;4.408;2023-03-21T01:36:55;100608.00;;;10.11;100.00
21100;BME280;10708;50.824;4.408;2023-03-21T01:41:59;100606.25;;;10.12;100.00
21100;BME280;10708;50.824;4.408;2023-03-21T01:47:01;100604.47;;;10.12;100.00
21100;BME280;10708;50.824;4.408;2023-03-21T01:52:06;100594.75;;;10.14;100.00
21100;BME280;10708;50.824;4.408;2023-03-21T01:57:15;100591.19;;;10.17;100.00
21100;BME280;10708;50.824;4.408;2023-03-21T02:02:23;100587.53;;;10.21;100.00
21100;BME280;10708;50.824;4.408;2023-03-21T02:07:28;100581.31;;;10.23;100.00
21100;BME280;10708;50.824;4.408;2023-03-21T02:12:33;100576.81;;;10.27;100.00
21100;BME280;10708;50.824;4.408;2023-03-21T02:17:39;100564.34;;;10.32;100.00
21100;BME280;10708;50.824;4.408;2023-03-21T02:23:09;100573.97;;;10.33;100.00
21100;BME280;10708;50.824;4.408;2023-03-21T02:28:23;100566.06;;;10.33;100.00
21100;BME280;10708;50.824;4.408;2023-03-21T02:39:23;100544.69;;;10.42;100.00
21100;BME280;10708;50.824;4.408;2023-03-21T02:44:31;100540.19;;;10.46;100.00
21100;BME280;10708;50.824;4.408;2023-03-21T02:49:40;100538.28;;;10.49;100.00
21100;BME280;10708;50.824;4.408;2023-03-21T02:54:47;100536.41;;;10.53;100.00
21100;BME280;10708;50.824;4.408;2023-03-21T02:59:52;100526.75;;;10.53;100.00
21100;BME280;10708;50.824;4.408;2023-03-21T03:04:55;100520.56;;;10.54;100.00
21100;BME280;10708;50.824;4.408;2023-03-21T03:10:17;100523.94;;;10.58;100.00
21100;BME280;10708;50.824;4.408;2023-03-21T03:15:31;100519.41;;;10.61;100.00
21100;BME280;10708;50.824;4.408;2023-03-21T03:20:46;100524.56;;;10.64;100.00
21100;BME280;10708;50.824;4.408;2023-03-21T03:25:56;100520.06;;;10.68;100.00
21100;BME280;10708;50.824;4.408;2023-03-21T03:31:02;100522.69;;;10.68;100.00
21100;BME280;10708;50.824;4.408;2023-03-21T03:36:07;100512.22;;;10.66;100.00
21100;BME280;10708;50.824;4.408;2023-03-21T03:41:15;100520.06;;;10.68;100.00
21100;BME280;10708;50.824;4.408;2023-03-21T03:46:28;100510.38;;;10.68;100.00
21100;BME280;10708;50.824;4.408;2023-03-21T03:51:33;100502.66;;;10.64;100.00
21100;BME280;10708;50.824;4.408;2023-03-21T03:56:39;100501.88;;;10.60;100.00
21100;BME280;10708;50.824;4.408;2023-03-21T04:01:42;100496.81;;;10.56;100.00
21100;BME280;10708;50.824;4.408;2023-03-21T04:06:44;100493.38;;;10.54;100.00
21100;BME280;10708;50.824;4.408;2023-03-21T04:11:52;100491.59;;;10.54;100.00
21100;BME280;10708;50.824;4.408;2023-03-21T04:16:55;100489.81;;;10.55;100.00
21100;BME280;10708;50.824;4.408;2023-03-21T04:21:57;100485.28;;;10.58;100.00
21100;BME280;10708;50.824;4.408;2023-03-21T04:27:01;100487.00;;;10.59;100.00
21100;BME280;10708;50.824;4.408;2023-03-21T04:32:05;100487.88;;;10.60;100.00
21100;BME280;10708;50.824;4.408;2023-03-21T04:37:17;100483.41;;;10.62;100.00
21100;BME280;10708;50.824;4.408;2023-03-21T04:42:21;100486.84;;;10.64;100.00
21100;BME280;10708;50.824;4.408;2023-03-21T04:47:23;100472.75;;;10.65;100.00
21100;BME280;10708;50.824;4.408;2023-03-21T04:52:26;100482.34;;;10.67;100.00
21100;BME280;10708;50.824;4.408;2023-03-21T04:57:29;100471.00;;;10.65;100.00
21100;BME280;10708;50.824;4.408;2023-03-21T05:02:32;100478.03;;;10.65;100.00
21100;BME280;10708;50.824;4.408;2023-03-21T05:07:34;100481.47;;;10.67;100.00
21100;BME280;10708;50.824;4.408;2023-03-21T05:12:38;100473.63;;;10.65;100.00
21100;BME280;10708;50.824;4.408;2023-03-21T05:17:41;100471.91;;;10.64;100.00
21100;BME280;10708;50.824;4.408;2023-03-21T05:22:43;100471.16;;;10.61;100.00
21100;BME280;10708;50.824;4.408;2023-03-21T05:27:47;100472.31;;;10.54;100.00
21100;BME280;10708;50.824;4.408;2023-03-21T05:32:54;100472.44;;;10.49;100.00
21100;BME280;10708;50.824;4.408;2023-03-21T05:37:56;100463.78;;;10.47;100.00
21100;BME280;10708;50.824;4.408;2023-03-21T05:43:00;100469.09;;;10.46;100.00
21100;BME280;10708;50.824;4.408;2023-03-21T05:48:02;100476.94;;;10.47;100.00
21100;BME280;10708;50.824;4.408;2023-03-21T05:53:05;100469.91;;;10.48;100.00
21100;BME280;10708;50.824;4.408;2023-03-21T05:58:08;100473.31;;;10.50;100.00
21100;BME280;10708;50.824;4.408;2023-03-21T06:03:11;100471.53;;;10.50;100.00
21100;BME280;10708;50.824;4.408;2023-03-21T06:08:13;100478.00;;;10.42;100.00
21100;BME280;10708;50.824;4.408;2023-03-21T06:13:17;100475.19;;;10.23;100.00
21100;BME280;10708;50.824;4.408;2023-03-21T06:18:19;100485.25;;;10.10;100.00
21100;BME280;10708;50.824;4.408;2023-03-21T06:23:21;100482.13;;;9.99;100.00
21100;BME280;10708;50.824;4.408;2023-03-21T06:28:25;100475.38;;;9.92;100.00
21100;BME280;10708;50.824;4.408;2023-03-21T06:33:27;100475.53;;;9.87;100.00
21100;BME280;10708;50.824;4.408;2023-03-21T06:38:30;100464.25;;;9.84;100.00
21100;BME280;10708;50.824;4.408;2023-03-21T06:43:34;100469.50;;;9.84;100.00
21100;BME280;10708;50.824;4.408;2023-03-21T06:48:36;100477.41;;;9.84;100.00
21100;BME280;10708;50.824;4.408;2023-03-21T06:53:45;100471.19;;;9.86;100.00
21100;BME280;10708;50.824;4.408;2023-03-21T06:58:49;100465.97;;;9.85;100.00
21100;BME280;10708;50.824;4.408;2023-03-21T07:09:02;100478.84;;;9.92;100.00
21100;BME280;10708;50.824;4.408;2023-03-21T07:14:06;100477.03;;;9.94;100.00
21100;BME280;10708;50.824;4.408;2023-03-21T07:19:09;100475.16;;;9.98;100.00
21100;BME280;10708;50.824;4.408;2023-03-21T07:24:11;100468.00;;;10.02;100.00
21100;BME280;10708;50.824;4.408;2023-03-21T07:29:15;100458.25;;;10.05;100.00
21100;BME280;10708;50.824;4.408;2023-03-21T07:34:21;100456.09;;;10.16;100.00
21100;BME280;10708;50.824;4.408;2023-03-21T07:39:23;100441.59;;;10.29;100.00
21100;BME280;10708;50.824;4.408;2023-03-21T07:44:27;100439.44;;;10.41;100.00
21100;BME280;10708;50.824;4.408;2023-03-21T07:49:30;100440.84;;;10.49;100.00
21100;BME280;10708;50.824;4.408;2023-03-21T07:54:33;100430.22;;;10.52;100.00
21100;BME280;10708;50.824;4.408;2023-03-21T07:59:37;100434.69;;;10.50;100.00
21100;BME280;10708;50.824;4.408;2023-03-21T08:04:39;100424.16;;;10.50;100.00
21100;BME280;10708;50.824;4.408;2023-03-21T08:09:41;100408.41;;;10.49;100.00
21100;BME280;10708;50.824;4.408;2023-03-21T08:14:46;100410.94;;;10.52;100.00
21100;BME280;10708;50.824;4.408;2023-03-21T08:19:49;100410.88;;;10.53;100.00
21100;BME280;10708;50.824;4.408;2023-03-21T08:24:51;100423.13;;;10.54;100.00
21100;BME280;10708;50.824;4.408;2023-03-21T08:29:55;100413.97;;;10.64;100.00
21100;BME280;10708;50.824;4.408;2023-03-21T08:34:58;100408.69;;;10.64;100.00
21100;BME280;10708;50.824;4.408;2023-03-21T08:40:00;100409.63;;;10.63;100.00
21100;BME280;10708;50.824;4.408;2023-03-21T08:45:07;100396.84;;;10.76;100.00
21100;BME280;10708;50.824;4.408;2023-03-21T08:50:12;100401.69;;;10.87;100.00
21100;BME280;10708;50.824;4.408;2023-03-21T08:55:16;100401.16;;;10.99;100.00
21100;BME280;10708;50.824;4.408;2023-03-21T09:00:21;100388.19;;;11.16;100.00
21100;BME280;10708;50.824;4.408;2023-03-21T09:05:24;100378.94;;;11.48;100.00
21100;BME280;10708;50.824;4.408;2023-03-21T09:10:29;100379.41;;;11.78;100.00
21100;BME280;10708;50.824;4.408;2023-03-21T09:15:32;100372.34;;;11.99;100.00
21100;BME280;10708;50.824;4.408;2023-03-21T09:20:35;100378.28;;;12.04;100.00
21100;BME280;10708;50.824;4.408;2023-03-21T09:25:38;100383.97;;;11.95;100.00
21100;BME280;10708;50.824;4.408;2023-03-21T09:30:42;100390.59;;;11.85;100.00
21100;BME280;10708;50.824;4.408;2023-03-21T09:35:45;100391.50;;;11.83;100.00
21100;BME280;10708;50.824;4.408;2023-03-21T09:40:59;100390.13;;;11.75;100.00
21100;BME280;10708;50.824;4.408;2023-03-21T09:46:11;100393.66;;;11.74;100.00
21100;BME280;10708;50.824;4.408;2023-03-21T09:51:18;100391.09;;;11.93;100.00
21100;BME280;10708;50.824;4.408;2023-03-21T09:56:20;100393.59;;;12.16;100.00
21100;BME280;10708;50.824;4.408;2023-03-21T10:01:27;100376.69;;;12.39;100.00
21100;BME280;10708;50.824;4.408;2023-03-21T10:06:34;100372.97;;;12.62;100.00
21100;BME280;10708;50.824;4.408;2023-03-21T10:11:42;100353.56;;;12.63;100.00
21100;BME280;10708;50.824;4.408;2023-03-21T10:16:48;100351.41;;;12.71;100.00
21100;BME280;10708;50.824;4.408;2023-03-21T10:21:52;100356.56;;;12.74;100.00
21100;BME280;10708;50.824;4.408;2023-03-21T10:26:55;100340.19;;;12.84;100.00
21100;BME280;10708;50.824;4.408;2023-03-21T10:31:59;100318.84;;;13.06;100.00
21100;BME280;10708;50.824;4.408;2023-03-21T10:37:03;100339.28;;;13.03;100.00
21100;BME280;10708;50.824;4.408;2023-03-21T10:42:16;100353.97;;;13.27;100.00
21100;BME280;10708;50.824;4.408;2023-03-21T10:47:22;100374.19;;;13.45;100.00
21100;BME280;10708;50.824;4.408;2023-03-21T10:52:27;100375.81;;;13.48;100.00
21100;BME280;10708;50.824;4.408;2023-03-21T10:57:31;100362.75;;;13.62;100.00
21100;BME280;10708;50.824;4.408;2023-03-21T11:02:36;100371.44;;;13.81;100.00
21100;BME280;10708;50.824;4.408;2023-03-21T11:07:39;100370.75;;;13.78;100.00
21100;BME280;10708;50.824;4.408;2023-03-21T11:12:46;100362.72;;;13.79;100.00
21100;BME280;10708;50.824;4.408;2023-03-21T11:17:50;100363.81;;;13.92;100.00
21100;BME280;10708;50.824;4.408;2023-03-21T11:22:54;100365.38;;;13.79;100.00
21100;BME280;10708;50.824;4.408;2023-03-21T11:27:57;100356.81;;;13.74;100.00
21100;BME280;10708;50.824;4.408;2023-03-21T11:33:02;100355.97;;;13.74;100.00
21100;BME280;10708;50.824;4.408;2023-03-21T11:38:22;100350.41;;;13.78;100.00
21100;BME280;10708;50.824;4.408;2023-03-21T11:43:27;100348.97;;;13.73;100.00
21100;BME280;10708;50.824;4.408;2023-03-21T11:48:34;100342.69;;;13.91;100.00
21100;BME280;10708;50.824;4.408;2023-03-21T11:53:44;100344.06;;;14.31;100.00
21100;BME280;10708;50.824;4.408;2023-03-21T11:59:23;100337.47;;;14.55;100.00
21100;BME280;10708;50.824;4.408;2023-03-21T12:04:38;100326.16;;;14.52;100.00
21100;BME280;10708;50.824;4.408;2023-03-21T12:09:44;100318.50;;;14.47;100.00
21100;BME280;10708;50.824;4.408;2023-03-21T12:14:56;100324.19;;;14.39;100.00
21100;BME280;10708;50.824;4.408;2023-03-21T12:20:13;100317.34;;;14.35;100.00
21100;BME280;10708;50.824;4.408;2023-03-21T12:25:24;100312.84;;;14.53;100.00
21100;BME280;10708;50.824;4.408;2023-03-21T12:30:32;100309.09;;;14.57;100.00
21100;BME280;10708;50.824;4.408;2023-03-21T12:35:49;100311.47;;;14.62;100.00
21100;BME280;10708;50.824;4.408;2023-03-21T12:41:11;100301.47;;;14.51;100.00
21100;BME280;10708;50.824;4.408;2023-03-21T12:46:22;100292.81;;;14.63;100.00
21100;BME280;10708;50.824;4.408;2023-03-21T12:51:30;100293.25;;;14.71;100.00
21100;BME280;10708;50.824;4.408;2023-03-21T12:56:37;100294.94;;;14.72;100.00
21100;BME280;10708;50.824;4.408;2023-03-21T13:01:42;100290.75;;;14.84;100.00
21100;BME280;10708;50.824;4.408;2023-03-21T13:06:47;100276.19;;;14.91;100.00
21100;BME280;10708;50.824;4.408;2023-03-21T13:11:52;100267.38;;;14.91;100.00
21100;BME280;10708;50.824;4.408;2023-03-21T13:17:02;100267.78;;;14.99;100.00
21100;BME280;10708;50.824;4.408;2023-03-21T13:22:11;100261.53;;;15.00;100.00
21100;BME280;10708;50.824;4.408;2023-03-21T13:27:27;100252.94;;;14.96;100.00
21100;BME280;10708;50.824;4.408;2023-03-21T13:32:32;100262.31;;;15.02;100.00
21100;BME280;10708;50.824;4.408;2023-03-21T13:37:39;100253.34;;;15.19;100.00
21100;BME280;10708;50.824;4.408;2023-03-21T13:42:44;100255.91;;;15.20;100.00
21100;BME280;10708;50.824;4.408;2023-03-21T13:47:52;100247.69;;;15.25;100.00
21100;BME280;10708;50.824;4.408;2023-03-21T13:58:37;100245.50;;;15.31;100.00
21100;BME280;10708;50.824;4.408;2023-03-21T14:03:40;100240.69;;;15.24;100.00
21100;BME280;10708;50.824;4.408;2023-03-21T14:08:45;100238.44;;;15.02;100.00
21100;BME280;10708;50.824;4.408;2023-03-21T14:13:52;100235.00;;;14.86;100.00
21100;BME280;10708;50.824;4.408;2023-03-21T14:18:58;100233.75;;;14.77;100.00
21100;BME280;10708;50.824;4.408;2023-03-21T14:24:02;100234.88;;;14.57;100.00
21100;BME280;10708;50.824;4.408;2023-03-21T14:29:07;100241.91;;;14.43;100.00
21100;BME280;10708;50.824;4.408;2023-03-21T14:34:12;100237.94;;;14.34;100.00
21100;BME280;10708;50.824;4.408;2023-03-21T14:39:19;100243.38;;;13.99;100.00
21100;BME280;10708;50.824;4.408;2023-03-21T14:44:25;100256.41;;;14.04;100.00
21100;BME280;10708;50.824;4.408;2023-03-21T14:49:30;100243.59;;;13.96;100.00
21100;BME280;10708;50.824;4.408;2023-03-21T14:54:33;100251.09;;;14.04;100.00
21100;BME280;10708;50.824;4.408;2023-03-21T14:59:38;100254.59;;;14.04;100.00
21100;BME280;10708;50.824;4.408;2023-03-21T15:04:42;100250.75;;;14.10;100.00
21100;BME280;10708;50.824;4.408;2023-03-21T15:09:53;100235.19;;;13.88;100.00
21100;BME280;10708;50.824;4.408;2023-03-21T15:14:58;100233.38;;;13.89;100.00
21100;BME280;10708;50.824;4.408;2023-03-21T15:20:01;100236.38;;;13.83;100.00
21100;BME280;10708;50.824;4.408;2023-03-21T15:25:16;100228.94;;;13.74;100.00
21100;BME280;10708;50.824;4.408;2023-03-21T15:30:24;100229.34;;;13.66;100.00
21100;BME280;10708;50.824;4.408;2023-03-21T15:35:32;100223.09;;;13.51;100.00
21100;BME280;10708;50.824;4.408;2023-03-21T15:40:35;100219.91;;;13.45;100.00
21100;BME280;10708;50.824;4.408;2023-03-21T15:45:46;100230.97;;;13.36;100.00
21100;BME280;10708;50.824;4.408;2023-03-21T15:50:55;100232.41;;;13.25;100.00
21100;BME280;10708;50.824;4.408;2023-03-21T15:55:59;100237.25;;;12.99;100.00
21100;BME280;10708;50.824;4.408;2023-03-21T16:01:13;100261.69;;;12.86;100.00
21100;BME280;10708;50.824;4.408;2023-03-21T16:06:19;100264.72;;;12.60;100.00
21100;BME280;10708;50.824;4.408;2023-03-21T16:11:27;100261.31;;;12.58;100.00
21100;BME280;10708;50.824;4.408;2023-03-21T16:16:33;100262.34;;;12.55;100.00
21100;BME280;10708;50.824;4.408;2023-03-21T16:21:35;100256.34;;;12.52;100.00
21100;BME280;10708;50.824;4.408;2023-03-21T16:26:43;100241.41;;;12.51;100.00
21100;BME280;10708;50.824;4.408;2023-03-21T16:31:48;100236.00;;;12.54;100.00
21100;BME280;10708;50.824;4.408;2023-03-21T16:36:51;100233.97;;;12.59;100.00
21100;BME280;10708;50.824;4.408;2023-03-21T16:41:53;100230.31;;;12.62;100.00
21100;BME280;10708;50.824;4.408;2023-03-21T16:46:57;100232.56;;;12.69;100.00
21100;BME280;10708;50.824;4.408;2023-03-21T16:52:01;100231.75;;;12.86;100.00
21100;BME280;10708;50.824;4.408;2023-03-21T16:57:05;100223.13;;;12.82;100.00
21100;BME280;10708;50.824;4.408;2023-03-21T17:02:14;100223.34;;;12.78;100.00
21100;BME280;10708;50.824;4.408;2023-03-21T17:07:17;100227.94;;;12.74;100.00
21100;BME280;10708;50.824;4.408;2023-03-21T17:12:19;100227.38;;;12.68;100.00
21100;BME280;10708;50.824;4.408;2023-03-21T17:17:23;100228.41;;;12.65;100.00
21100;BME280;10708;50.824;4.408;2023-03-21T17:22:25;100227.91;;;12.57;100.00
21100;BME280;10708;50.824;4.408;2023-03-21T17:27:28;100219.50;;;12.49;100.00
21100;BME280;10708;50.824;4.408;2023-03-21T17:32:31;100225.94;;;12.43;100.00
21100;BME280;10708;50.824;4.408;2023-03-21T17:37:34;100231.22;;;12.43;100.00
21100;BME280;10708;50.824;4.408;2023-03-21T17:42:38;100222.50;;;12.41;100.00
21100;BME280;10708;50.824;4.408;2023-03-21T17:47:42;100225.22;;;12.40;100.00
21100;BME280;10708;50.824;4.408;2023-03-21T17:52:45;100227.06;;;12.38;100.00
21100;BME280;10708;50.824;4.408;2023-03-21T17:57:48;100222.91;;;12.34;100.00
21100;BME280;10708;50.824;4.408;2023-03-21T18:02:52;100219.53;;;12.30;100.00
21100;BME280;10708;50.824;4.408;2023-03-21T18:07:56;100219.69;;;12.27;100.00
21100;BME280;10708;50.824;4.408;2023-03-21T18:12:58;100216.41;;;12.22;100.00
21100;BME280;10708;50.824;4.408;2023-03-21T18:18:02;100211.28;;;12.19;100.00
21100;BME280;10708;50.824;4.408;2023-03-21T18:23:04;100217.47;;;12.18;100.00
21100;BME280;10708;50.824;4.408;2023-03-21T18:28:08;100206.09;;;12.17;100.00
21100;BME280;10708;50.824;4.408;2023-03-21T18:33:12;100205.13;;;12.18;100.00
21100;BME280;10708;50.824;4.408;2023-03-21T18:38:14;100220.03;;;12.19;100.00
21100;BME280;10708;50.824;4.408;2023-03-21T18:43:17;100216.66;;;12.17;100.00
21100;BME280;10708;50.824;4.408;2023-03-21T18:48:21;100215.69;;;12.18;100.00
21100;BME280;10708;50.824;4.408;2023-03-21T18:53:23;100230.53;;;12.21;100.00
21100;BME280;10708;50.824;4.408;2023-03-21T18:58:26;100225.25;;;12.21;100.00
21100;BME280;10708;50.824;4.408;2023-03-21T19:03:30;100220.69;;;12.25;100.00
21100;BME280;10708;50.824;4.408;2023-03-21T19:08:32;100223.34;;;12.25;100.00
21100;BME280;10708;50.824;4.408;2023-03-21T19:13:38;100225.06;;;12.26;100.00
21100;BME280;10708;50.824;4.408;2023-03-21T19:18:42;100233.84;;;12.26;100.00
21100;BME280;10708;50.824;4.408;2023-03-21T19:23:44;100231.88;;;12.30;100.00
21100;BME280;10708;50.824;4.408;2023-03-21T19:28:47;100245.94;;;12.30;100.00
21100;BME280;10708;50.824;4.408;2023-03-21T19:33:50;100238.81;;;12.32;100.00
21100;BME280;10708;50.824;4.408;2023-03-21T19:38:53;100236.94;;;12.34;100.00
21100;BME280;10708;50.824;4.408;2023-03-21T19:43:55;100236.09;;;12.34;100.00
21100;BME280;10708;50.824;4.408;2023-03-21T19:48:59;100236.09;;;12.34;100.00
21100;BME280;10708;50.824;4.408;2023-03-21T19:54:04;100225.47;;;12.35;100.00
21100;BME280;10708;50.824;4.408;2023-03-21T19:59:07;100229.03;;;12.34;100.00
21100;BME280;10708;50.824;4.408;2023-03-21T20:04:13;100224.69;;;12.33;100.00
21100;BME280;10708;50.824;4.408;2023-03-21T20:09:16;100221.09;;;12.34;100.00
21100;BME280;10708;50.824;4.408;2023-03-21T20:14:21;100221.19;;;12.33;100.00
21100;BME280;10708;50.824;4.408;2023-03-21T20:19:26;100216.91;;;12.30;100.00
21100;BME280;10708;50.824;4.408;2023-03-21T20:24:28;100217.91;;;12.28;100.00
21100;BME280;10708;50.824;4.408;2023-03-21T20:29:30;100222.56;;;12.23;100.00
21100;BME280;10708;50.824;4.408;2023-03-21T20:34:34;100216.66;;;12.17;100.00
21100;BME280;10708;50.824;4.408;2023-03-21T20:39:36;100221.28;;;12.12;100.00
21100;BME280;10708;50.824;4.408;2023-03-21T20:44:39;100219.94;;;12.04;100.00
21100;BME280;10708;50.824;4.408;2023-03-21T20:49:43;100222.78;;;11.99;100.00
21100;BME280;10708;50.824;4.408;2023-03-21T20:54:45;100224.84;;;11.93;100.00
21100;BME280;10708;50.824;4.408;2023-03-21T20:59:48;100219.00;;;11.86;100.00
21100;BME280;10708;50.824;4.408;2023-03-21T21:04:52;100218.41;;;11.79;100.00
21100;BME280;10708;50.824;4.408;2023-03-21T21:09:55;100209.91;;;11.73;100.00
21100;BME280;10708;50.824;4.408;2023-03-21T21:14:57;100213.81;;;11.64;100.00
21100;BME280;10708;50.824;4.408;2023-03-21T21:20:02;100194.88;;;11.56;100.00
21100;BME280;10708;50.824;4.408;2023-03-21T21:25:15;100195.97;;;11.51;100.00
21100;BME280;10708;50.824;4.408;2023-03-21T21:30:17;100193.22;;;11.54;100.00
21100;BME280;10708;50.824;4.408;2023-03-21T21:35:22;100186.09;;;11.56;100.00
21100;BME280;10708;50.824;4.408;2023-03-21T21:40:24;100188.50;;;11.60;100.00
21100;BME280;10708;50.824;4.408;2023-03-21T21:45:26;100183.97;;;11.64;100.00
21100;BME280;10708;50.824;4.408;2023-03-21T21:50:30;100175.91;;;11.67;100.00
21100;BME280;10708;50.824;4.408;2023-03-21T21:55:33;100177.63;;;11.68;100.00
21100;BME280;10708;50.824;4.408;2023-03-21T22:00:35;100167.91;;;11.68;100.00
21100;BME280;10708;50.824;4.408;2023-03-21T22:05:39;100161.00;;;11.66;100.00
21100;BME280;10708;50.824;4.408;2023-03-21T22:10:44;100166.56;;;11.60;100.00
21100;BME280;10708;50.824;4.408;2023-03-21T22:15:47;100159.84;;;11.53;100.00
21100;BME280;10708;50.824;4.408;2023-03-21T22:20:50;100159.06;;;11.51;100.00
21100;BME280;10708;50.824;4.408;2023-03-21T22:25:53;100153.72;;;11.52;100.00
21100;BME280;10708;50.824;4.408;2023-03-21T22:30:55;100140.47;;;11.54;100.00
21100;BME280;10708;50.824;4.408;2023-03-21T22:35:59;100131.72;;;11.53;100.00
21100;BME280;10708;50.824;4.408;2023-03-21T22:41:03;100130.13;;;11.49;100.00
21100;BME280;10708;50.824;4.408;2023-03-21T22:46:06;100123.13;;;11.48;100.00
21100;BME280;10708;50.824;4.408;2023-03-21T22:51:10;100118.28;;;11.39;100.00
21100;BME280;10708;50.824;4.408;2023-03-21T22:56:12;100111.59;;;11.32;100.00
21100;BME280;10708;50.824;4.408;2023-03-21T23:01:15;100113.88;;;11.21;100.00
21100;BME280;10708;50.824;4.408;2023-03-21T23:06:18;100098.69;;;11.07;100.00
21100;BME280;10708;50.824;4.408;2023-03-21T23:11:22;100095.63;;;10.97;100.00
21100;BME280;10708;50.824;4.408;2023-03-21T23:16:25;100095.25;;;10.86;100.00
21100;BME280;10708;50.824;4.408;2023-03-21T23:21:30;100092.16;;;10.77;100.00
21100;BME280;10708;50.824;4.408;2023-03-21T23:26:34;100097.72;;;10.69;100.00
21100;BME280;10708;50.824;4.408;2023-03-21T23:31:37;100082.22;;;10.63;100.00
21100;BME280;10708;50.824;4.408;2023-03-21T23:36:40;100079.69;;;10.60;100.00
21100;BME280;10708;50.824;4.408;2023-03-21T23:41:43;100070.94;;;10.59;100.00
21100;BME280;10708;50.824;4.408;2023-03-21T23:46:45;100074.59;;;10.57;100.00
21100;BME280;10708;50.824;4.408;2023-03-21T23:51:49;100078.13;;;10.56;100.00
21100;BME280;10708;50.824;4.408;2023-03-21T23:56:51;100069.22;;;10.58;100.00
